Time;durP1;ratioP1;P1;durP2;ratioP2;P2;SDS_P1;SDS_P2;PMS_P1;PMS_P2;Temp;Humidity;BMP_temperature;BMP_pressure;BME280_temperature;BME280_humidity;BME280_pressure;Samples;Min_cycle;Max_cycle;Signal;HPM_P1;HPM_P2
2023/09/17 00:00:37;;;;;;;3.80;3.40;;;24.10;70.50;;;;;;4918009;28;94768;-94
2023/09/17 00:03:03;;;;;;;3.95;3.50;;;24.10;69.70;;;;;;4919815;28;92033;-94
2023/09/17 00:05:32;;;;;;;3.90;3.58;;;24.10;69.80;;;;;;4927082;28;92937;-94
2023/09/17 00:07:57;;;;;;;4.68;3.83;;;24.10;69.90;;;;;;4924818;28;96238;-93
2023/09/17 00:10:23;;;;;;;5.10;3.83;;;24.00;69.90;;;;;;4908020;28;95106;-94
2023/09/17 00:12:55;;;;;;;3.55;2.83;;;24.10;69.90;;;;;;4919144;28;92549;-94
2023/09/17 00:15:27;;;;;;;4.35;3.70;;;24.10;70.10;;;;;;4909969;28;92333;-94
2023/09/17 00:17:55;;;;;;;3.83;3.28;;;24.00;70.00;;;;;;4916555;28;94325;-94
2023/09/17 00:20:21;;;;;;;4.10;3.65;;;24.10;70.00;;;;;;4915310;28;94364;-94
2023/09/17 00:22:46;;;;;;;5.55;3.47;;;24.00;69.90;;;;;;4919695;28;92420;-94
2023/09/17 00:25:12;;;;;;;4.55;3.30;;;24.10;69.90;;;;;;4915519;28;92733;-94
2023/09/17 00:27:41;;;;;;;3.58;3.20;;;24.10;69.80;;;;;;4918110;28;95001;-95
2023/09/17 00:30:09;;;;;;;3.42;3.13;;;24.00;69.70;;;;;;4919538;28;95171;-93
2023/09/17 00:32:34;;;;;;;3.60;3.30;;;24.00;69.70;;;;;;4917908;28;94142;-94
2023/09/17 00:35:00;;;;;;;4.38;3.35;;;24.00;69.60;;;;;;4917431;28;92724;-94
2023/09/17 00:37:28;;;;;;;3.35;3.08;;;24.00;69.60;;;;;;4903085;28;96596;-94
2023/09/17 00:39:54;;;;;;;3.47;3.00;;;24.00;69.60;;;;;;4897321;28;95859;-94
2023/09/17 00:42:20;;;;;;;3.47;3.17;;;24.00;69.60;;;;;;4897272;28;92484;-94
2023/09/17 00:44:48;;;;;;;3.60;3.30;;;24.00;69.60;;;;;;4910762;28;92344;-94
2023/09/17 00:47:14;;;;;;;4.03;3.60;;;24.00;69.60;;;;;;4899197;28;95522;-94
2023/09/17 00:49:43;;;;;;;3.90;3.25;;;24.00;69.60;;;;;;4918398;28;95235;-94
2023/09/17 00:52:19;;;;;;;3.50;3.20;;;24.00;69.60;;;;;;4917849;28;93199;-95
2023/09/17 00:54:47;;;;;;;3.15;2.85;;;24.00;69.50;;;;;;4925374;28;92321;-95
2023/09/17 00:57:17;;;;;;;4.45;3.42;;;24.00;69.40;;;;;;4919835;28;97019;-94
2023/09/17 00:59:47;;;;;;;4.35;3.60;;;24.00;69.60;;;;;;4917007;28;95172;-94
2023/09/17 01:02:18;;;;;;;5.28;3.38;;;24.00;69.70;;;;;;4906505;28;92743;-94
2023/09/17 01:04:49;;;;;;;4.47;3.78;;;24.00;69.40;;;;;;4920430;28;92253;-93
2023/09/17 01:07:19;;;;;;;3.55;3.22;;;24.00;69.40;;;;;;4926782;28;96300;-94
2023/09/17 01:09:45;;;;;;;3.80;3.40;;;24.00;69.30;;;;;;4909870;28;94877;-94
2023/09/17 01:12:12;;;;;;;3.58;3.28;;;24.00;69.50;;;;;;4915527;28;92720;-94
2023/09/17 01:14:38;;;;;;;4.22;3.20;;;24.00;69.60;;;;;;4917812;28;91805;-94
2023/09/17 01:17:08;;;;;;;3.97;3.28;;;24.00;69.70;;;;;;4917062;28;95007;-94
2023/09/17 01:19:34;;;;;;;3.63;3.33;;;24.00;69.60;;;;;;4916218;28;94685;-94
2023/09/17 01:22:20;;;;;;;3.45;3.10;;;24.00;69.40;;;;;;4916005;28;93976;-94
2023/09/17 01:25:06;;;;;;;4.47;3.22;;;24.00;69.30;;;;;;4915235;28;92672;-95
2023/09/17 01:27:38;;;;;;;5.32;3.70;;;24.00;69.30;;;;;;4918122;28;95614;-94
2023/09/17 01:30:10;;;;;;;4.47;4.07;;;24.00;69.30;;;;;;4918207;28;94132;-94
2023/09/17 01:32:38;;;;;;;4.13;3.38;;;24.00;69.60;;;;;;4917037;28;92669;-94
2023/09/17 01:35:04;;;;;;;3.78;3.28;;;24.00;69.50;;;;;;4916443;28;93110;-95
2023/09/17 01:37:35;;;;;;;4.03;3.60;;;24.00;69.40;;;;;;4917083;28;96286;-94
2023/09/17 01:40:10;;;;;;;3.20;2.90;;;23.90;69.50;;;;;;4918547;28;94682;-94
2023/09/17 01:42:48;;;;;;;3.42;3.15;;;23.90;69.40;;;;;;4877610;28;92649;-94
2023/09/17 01:45:18;;;;;;;3.93;3.40;;;24.00;69.50;;;;;;4927241;28;93010;-94
2023/09/17 01:47:50;;;;;;;3.60;3.30;;;23.90;69.40;;;;;;4915819;28;96618;-94
2023/09/17 01:50:17;;;;;;;4.00;3.58;;;24.00;69.50;;;;;;4914503;28;95433;-95
2023/09/17 01:52:44;;;;;;;4.47;3.58;;;23.90;69.20;;;;;;4916426;28;92050;-94
2023/09/17 01:55:10;;;;;;;3.72;3.30;;;23.90;69.20;;;;;;4917497;28;92460;-94
2023/09/17 01:57:36;;;;;;;4.13;3.78;;;23.90;69.40;;;;;;4896114;28;96123;-94
2023/09/17 02:00:39;;;;;;;4.32;3.80;;;23.90;69.50;;;;;;4914493;28;95623;-94
2023/09/17 02:02:55;;;;;;;3.83;3.22;;;23.90;69.20;;;;;;4920002;28;92166;-94
2023/09/17 02:05:24;;;;;;;4.60;3.40;;;23.90;69.30;;;;;;4919671;28;91749;-95
2023/09/17 02:07:50;;;;;;;3.78;3.20;;;23.90;69.20;;;;;;4914760;28;94106;-95
2023/09/17 02:10:15;;;;;;;3.58;3.22;;;23.90;69.10;;;;;;4923089;28;95677;-96
2023/09/17 02:12:41;;;;;;;3.50;3.17;;;23.90;69.30;;;;;;4896348;28;94103;-94
2023/09/17 02:15:09;;;;;;;3.95;3.60;;;23.90;69.00;;;;;;4919612;28;92572;-94
2023/09/17 02:17:35;;;;;;;3.72;3.42;;;23.90;69.40;;;;;;4903009;28;95005;-94
2023/09/17 02:20:01;;;;;;;3.80;3.40;;;23.90;69.20;;;;;;4917485;28;94916;-94
2023/09/17 02:22:27;;;;;;;3.35;3.05;;;23.90;69.10;;;;;;4919265;28;92094;-95
2023/09/17 02:24:53;;;;;;;3.88;3.47;;;23.90;69.10;;;;;;4922964;28;92946;-95
2023/09/17 02:27:22;;;;;;;4.18;3.78;;;23.80;69.00;;;;;;4917079;28;94081;-95
2023/09/17 02:29:50;;;;;;;3.50;3.05;;;23.90;69.20;;;;;;4918287;28;94562;-94
2023/09/17 02:32:16;;;;;;;3.77;3.40;;;23.90;69.10;;;;;;4917390;28;93011;-94
2023/09/17 02:35:08;;;;;;;3.95;3.30;;;23.80;69.10;;;;;;4917299;28;92725;-94
2023/09/17 02:37:39;;;;;;;3.85;3.03;;;23.90;69.00;;;;;;4902123;28;96847;-93
2023/09/17 02:40:08;;;;;;;3.92;3.53;;;23.90;69.30;;;;;;4892859;28;95463;-94
2023/09/17 02:42:35;;;;;;;3.47;2.97;;;23.80;68.80;;;;;;4919017;28;93236;-95
2023/09/17 02:45:04;;;;;;;4.85;3.33;;;23.90;69.00;;;;;;4919079;28;92310;-93
2023/09/17 02:47:31;;;;;;;3.53;3.22;;;23.90;69.00;;;;;;4919527;28;95478;-95
2023/09/17 02:49:57;;;;;;;4.78;3.72;;;23.80;69.00;;;;;;4918772;28;95379;-95
2023/09/17 02:52:26;;;;;;;3.28;2.97;;;23.90;69.00;;;;;;4920369;28;92819;-95
2023/09/17 02:54:55;;;;;;;;;;;23.90;68.80;;;;;;4933100;28;92098;-95
2023/09/17 02:57:23;;;;;;;3.15;2.85;;;23.90;68.90;;;;;;4916495;28;95440;-94
2023/09/17 02:59:49;;;;;;;3.90;3.50;;;23.80;68.80;;;;;;4907549;28;94765;-93
2023/09/17 03:02:15;;;;;;;3.42;3.13;;;23.80;69.00;;;;;;4898246;28;93880;-94
2023/09/17 03:04:41;;;;;;;3.65;3.35;;;23.80;68.90;;;;;;4899530;28;92368;-95
2023/09/17 03:07:06;;;;;;;4.18;3.42;;;23.90;68.90;;;;;;4897898;28;95439;-94
2023/09/17 03:09:33;;;;;;;3.78;3.47;;;23.90;68.70;;;;;;4896483;28;95841;-95
2023/09/17 03:12:01;;;;;;;3.78;3.40;;;23.90;68.70;;;;;;4902783;28;92991;-95
2023/09/17 03:14:27;;;;;;;3.53;3.22;;;23.90;68.80;;;;;;4911494;28;92395;-94
2023/09/17 03:16:53;;;;;;;4.22;3.83;;;23.80;68.80;;;;;;4920480;28;94701;-94
2023/09/17 03:19:19;;;;;;;3.92;3.40;;;23.80;68.70;;;;;;4917440;28;94105;-94
2023/09/17 03:21:47;;;;;;;3.90;3.38;;;23.90;69.40;;;;;;4935087;28;92227;-95
2023/09/17 03:24:16;;;;;;;4.22;3.60;;;23.80;68.60;;;;;;4920706;28;92648;-95
2023/09/17 03:26:42;;;;;;;4.10;3.70;;;23.80;68.50;;;;;;4916332;28;96227;-95
2023/09/17 03:29:12;;;;;;;3.85;3.33;;;23.80;68.60;;;;;;4909166;28;94753;-94
2023/09/17 03:31:38;;;;;;;4.05;3.50;;;23.80;68.50;;;;;;4928355;28;92957;-95
2023/09/17 03:34:03;;;;;;;3.95;3.65;;;23.80;68.60;;;;;;4919514;28;92893;-95
2023/09/17 03:36:35;;;;;;;5.35;3.65;;;23.80;68.70;;;;;;4916957;28;95242;-95
2023/09/17 03:39:01;;;;;;;4.00;3.60;;;23.80;68.60;;;;;;4918161;28;94696;-94
2023/09/17 03:41:26;;;;;;;4.20;3.80;;;23.80;68.70;;;;;;4916556;28;92092;-95
2023/09/17 03:43:58;;;;;;;3.95;3.55;;;23.80;68.70;;;;;;4926307;28;91815;-95
2023/09/17 03:46:24;;;;;;;3.95;3.55;;;23.80;68.70;;;;;;4918022;28;94974;-94
2023/09/17 03:48:53;;;;;;;3.63;3.33;;;23.80;68.50;;;;;;4932657;28;94271;-95
2023/09/17 03:51:19;;;;;;;4.03;3.40;;;23.80;68.60;;;;;;4907757;28;94024;-94
2023/09/17 03:53:45;;;;;;;4.03;3.65;;;23.80;68.60;;;;;;4906166;28;92526;-94
2023/09/17 03:56:12;;;;;;;4.05;3.65;;;23.80;68.80;;;;;;4917599;28;94449;-94
2023/09/17 03:58:37;;;;;;;4.30;3.90;;;23.80;68.80;;;;;;4916634;28;94032;-95
2023/09/17 04:01:06;;;;;;;3.55;3.22;;;23.80;68.70;;;;;;4916908;28;92441;-95
2023/09/17 04:03:32;;;;;;;4.32;3.88;;;23.80;68.60;;;;;;4917512;28;92692;-95
2023/09/17 04:06:00;;;;;;;3.80;3.33;;;23.80;68.50;;;;;;4919215;28;95114;-94
2023/09/17 04:08:26;;;;;;;3.72;3.42;;;23.80;68.50;;;;;;4934120;28;95461;-94
2023/09/17 04:10:57;;;;;;;3.65;3.35;;;23.80;68.60;;;;;;4917598;28;92823;-95
2023/09/17 04:13:23;;;;;;;3.88;3.47;;;23.80;68.50;;;;;;4919397;28;92125;-94
2023/09/17 04:15:49;;;;;;;3.50;3.20;;;23.80;68.60;;;;;;4926211;28;95475;-94
2023/09/17 04:18:15;;;;;;;4.07;3.40;;;23.80;68.60;;;;;;4919569;28;95884;-94
2023/09/17 04:20:44;;;;;;;4.20;3.80;;;23.80;68.50;;;;;;4918929;28;92886;-95
2023/09/17 04:23:09;;;;;;;5.43;3.85;;;23.80;68.70;;;;;;4917632;28;91970;-95
2023/09/17 04:25:35;;;;;;;4.45;3.97;;;23.80;68.50;;;;;;4901170;28;95902;-95
2023/09/17 04:28:09;;;;;;;3.90;3.60;;;23.80;68.60;;;;;;4914479;28;95909;-94
2023/09/17 04:30:35;;;;;;;4.18;3.80;;;23.80;68.50;;;;;;4915989;28;92839;-95
2023/09/17 04:33:01;;;;;;;4.28;3.88;;;23.70;68.50;;;;;;4919292;28;92646;-95
2023/09/17 04:35:27;;;;;;;4.22;3.65;;;23.80;68.70;;;;;;4916435;28;94503;-95
2023/09/17 04:37:53;;;;;;;3.97;3.38;;;23.70;68.50;;;;;;4915424;28;94731;-94
2023/09/17 04:40:18;;;;;;;3.72;3.42;;;23.80;68.40;;;;;;4917293;28;93591;-94
2023/09/17 04:42:52;;;;;;;3.80;3.50;;;23.70;68.30;;;;;;4918134;28;93264;-95
2023/09/17 04:45:34;;;;;;;4.28;3.67;;;23.80;68.50;;;;;;4907700;28;95176;-96
2023/09/17 04:48:00;;;;;;;4.18;3.50;;;23.80;68.60;;;;;;4915710;28;94447;-94
2023/09/17 04:50:26;;;;;;;4.05;3.13;;;23.80;68.50;;;;;;4919615;28;92653;-95
2023/09/17 04:52:52;;;;;;;3.75;3.40;;;23.70;68.30;;;;;;4918906;28;92868;-95
2023/09/17 04:55:18;;;;;;;3.60;3.30;;;23.80;68.30;;;;;;4917464;28;95502;-95
2023/09/17 04:57:46;;;;;;;5.15;4.57;;;23.70;68.20;;;;;;4917865;28;95411;-94
2023/09/17 05:00:23;;;;;;;;;;;;;;;;;;;;;
2023/09/17 05:02:49;;;;;;;3.85;3.50;;;23.70;68.40;;;;;;4926327;28;92034;-94
2023/09/17 05:05:18;;;;;;;3.88;3.58;;;23.70;68.30;;;;;;4901091;28;96761;-94
2023/09/17 05:07:44;;;;;;;3.92;3.40;;;23.70;68.20;;;;;;4925570;28;95682;-96
2023/09/17 05:10:10;;;;;;;4.00;3.65;;;23.70;68.20;;;;;;4917145;28;92209;-94
2023/09/17 05:12:35;;;;;;;4.15;3.50;;;23.70;68.20;;;;;;4918926;28;92505;-94
2023/09/17 05:15:02;;;;;;;4.53;3.90;;;23.70;68.20;;;;;;4917764;28;95470;-93
2023/09/17 05:17:31;;;;;;;3.90;3.60;;;23.70;68.30;;;;;;4915809;28;95523;-94
2023/09/17 05:19:57;;;;;;;4.07;3.67;;;23.70;68.20;;;;;;4926997;28;92954;-95
2023/09/17 05:22:23;;;;;;;3.65;3.35;;;23.70;68.50;;;;;;4917995;28;92077;-95
2023/09/17 05:24:49;;;;;;;4.70;3.50;;;23.70;68.50;;;;;;4916352;28;95031;-94
2023/09/17 05:27:14;;;;;;;4.32;3.78;;;23.70;68.50;;;;;;4916116;28;95070;-95
2023/09/17 05:29:41;;;;;;;4.15;3.75;;;23.70;68.40;;;;;;4917060;28;93504;-94
2023/09/17 05:32:07;;;;;;;3.50;3.20;;;23.70;68.30;;;;;;4917958;28;92811;-94
2023/09/17 05:34:32;;;;;;;3.70;3.40;;;23.70;68.40;;;;;;4914846;28;95947;-94
2023/09/17 05:36:58;;;;;;;3.95;3.55;;;23.70;68.20;;;;;;4918689;28;96099;-93
2023/09/17 05:39:23;;;;;;;3.78;3.47;;;23.70;68.20;;;;;;4917099;28;92292;-94
2023/09/17 05:41:49;;;;;;;3.42;3.13;;;23.70;68.10;;;;;;4915463;28;93628;-94
2023/09/17 05:44:15;;;;;;;4.20;3.80;;;23.70;68.30;;;;;;4916574;28;94835;-93
2023/09/17 05:46:41;;;;;;;3.80;3.40;;;23.70;68.10;;;;;;4916868;28;94982;-94
2023/09/17 05:49:06;;;;;;;4.55;3.60;;;23.70;68.30;;;;;;4920934;28;92392;-94
2023/09/17 05:51:32;;;;;;;3.70;3.40;;;23.70;68.20;;;;;;4921415;28;92931;-94
2023/09/17 05:53:58;;;;;;;3.75;3.45;;;23.70;68.20;;;;;;4929169;28;96129;-94
2023/09/17 05:56:23;;;;;;;3.85;3.45;;;23.70;68.10;;;;;;4919737;28;95779;-93
2023/09/17 05:58:51;;;;;;;3.50;3.20;;;23.70;68.30;;;;;;4918740;28;92701;-95
2023/09/17 06:01:17;;;;;;;3.72;3.42;;;23.80;68.10;;;;;;4916765;28;92635;-95
2023/09/17 06:03:44;;;;;;;3.42;3.13;;;23.70;68.10;;;;;;4919252;28;94519;-95
2023/09/17 06:06:10;;;;;;;3.55;3.25;;;23.80;68.30;;;;;;4928110;28;94439;-95
2023/09/17 06:08:35;;;;;;;4.30;3.22;;;23.80;67.90;;;;;;4945510;28;93311;-96
2023/09/17 06:11:02;;;;;;;5.22;4.35;;;23.80;68.40;;;;;;4950668;28;91231;-94
2023/09/17 06:13:28;;;;;;;6.80;4.32;;;23.80;68.70;;;;;;4956732;28;93288;-96
2023/09/17 06:15:53;;;;;;;6.50;4.25;;;23.70;68.70;;;;;;4938536;28;94477;-96
2023/09/17 06:18:19;;;;;;;6.72;3.92;;;23.70;69.30;;;;;;4947308;28;94258;-94
2023/09/17 06:20:56;;;;;;;7.13;4.30;;;23.80;69.60;;;;;;4936227;28;92040;-94
2023/09/17 06:23:22;;;;;;;10.82;4.22;;;23.80;69.30;;;;;;4943526;28;95981;-96
2023/09/17 06:25:47;;;;;;;6.57;4.20;;;23.80;69.10;;;;;;4952943;28;92718;-96
2023/09/17 06:28:13;;;;;;;9.30;4.30;;;23.80;69.80;;;;;;4923591;28;92498;-95
2023/09/17 06:31:10;;;;;;;5.93;4.57;;;23.70;70.20;;;;;;4920971;28;92727;-95
2023/09/17 06:33:39;;;;;;;5.10;3.90;;;23.80;70.90;;;;;;4949710;28;98129;-94
2023/09/17 06:36:05;;;;;;;6.32;4.55;;;23.80;70.70;;;;;;4947357;28;92481;-96
2023/09/17 06:38:31;;;;;;;7.68;4.13;;;23.80;70.80;;;;;;4947756;28;93188;-96
2023/09/17 06:40:57;;;;;;;8.88;3.67;;;23.80;71.00;;;;;;4933539;28;92449;-95
2023/09/17 06:43:22;;;;;;;7.30;4.00;;;23.80;71.20;;;;;;4935233;28;95140;-96
2023/09/17 06:45:48;;;;;;;5.72;3.97;;;23.70;71.00;;;;;;4932222;28;96340;-95
2023/09/17 06:48:14;;;;;;;7.13;3.45;;;23.70;71.30;;;;;;4948989;28;92221;-94
2023/09/17 06:50:40;;;;;;;7.78;4.28;;;23.80;71.10;;;;;;4930377;28;92257;-96
2023/09/17 06:53:06;;;;;;;9.65;4.60;;;23.80;71.30;;;;;;4947194;28;93288;-96
2023/09/17 06:55:32;;;;;;;6.07;4.00;;;23.90;71.30;;;;;;4928237;28;95441;-94
2023/09/17 06:57:58;;;;;;;6.10;4.20;;;23.80;71.40;;;;;;4929701;28;92785;-96
2023/09/17 07:00:24;;;;;;;6.43;3.83;;;23.80;71.50;;;;;;4925323;28;92316;-95
2023/09/17 07:02:50;;;;;;;4.43;3.78;;;23.70;71.50;;;;;;4927093;28;94639;-95
2023/09/17 07:05:16;;;;;;;5.70;4.38;;;23.70;71.40;;;;;;4925336;28;94071;-96
2023/09/17 07:07:42;;;;;;;4.65;4.20;;;23.70;71.60;;;;;;4926113;28;93471;-96
2023/09/17 07:10:08;;;;;;;4.93;4.15;;;23.70;71.60;;;;;;4943653;28;92811;-96
2023/09/17 07:12:40;;;;;;;6.25;4.68;;;23.70;71.70;;;;;;4946288;28;92728;-94
2023/09/17 07:15:06;;;;;;;6.45;4.70;;;23.70;71.40;;;;;;4925477;28;95295;-93
2023/09/17 07:17:33;;;;;;;8.32;5.18;;;23.70;72.00;;;;;;4943151;28;92907;-94
2023/09/17 07:19:59;;;;;;;5.88;4.97;;;23.70;72.00;;;;;;4924345;28;92521;-93
2023/09/17 07:22:24;;;;;;;101.20;24.30;;;23.70;72.10;;;;;;4943708;28;93575;-96
2023/09/17 07:24:55;;;;;;;79.03;21.42;;;23.70;72.10;;;;;;4943095;28;93005;-95
2023/09/17 07:27:22;;;;;;;46.72;19.10;;;23.70;71.70;;;;;;4926172;28;92605;-96
2023/09/17 07:29:48;;;;;;;39.55;14.40;;;23.70;71.70;;;;;;4924898;28;92645;-95
2023/09/17 07:32:14;;;;;;;23.85;11.77;;;23.70;71.60;;;;;;4926980;28;96482;-95
2023/09/17 07:34:39;;;;;;;17.77;10.43;;;23.70;71.70;;;;;;4922298;28;96199;-94
2023/09/17 07:37:05;;;;;;;18.17;10.35;;;23.80;71.60;;;;;;4922582;28;92215;-93
2023/09/17 07:39:31;;;;;;;14.07;9.55;;;23.70;71.50;;;;;;4941285;28;92886;-94
2023/09/17 07:41:57;;;;;;;16.98;10.10;;;23.70;71.40;;;;;;4934431;28;92878;-94
2023/09/17 07:44:23;;;;;;;10.98;9.65;;;23.80;71.40;;;;;;4935707;28;92592;-95
2023/09/17 07:46:48;;;;;;;11.77;9.98;;;23.70;71.40;;;;;;4932630;28;92572;-96
2023/09/17 07:49:14;;;;;;;15.27;10.38;;;23.70;71.50;;;;;;4935734;28;91826;-95
2023/09/17 07:51:39;;;;;;;10.73;9.68;;;23.70;71.50;;;;;;4918662;28;94286;-95
2023/09/17 07:54:05;;;;;;;15.25;10.02;;;23.70;71.80;;;;;;4918617;28;94434;-95
2023/09/17 07:56:31;;;;;;;12.05;10.27;;;23.60;71.80;;;;;;4917002;28;93014;-95
2023/09/17 07:58:57;;;;;;;14.88;10.85;;;23.70;71.80;;;;;;4913791;28;92702;-95
2023/09/17 08:01:22;;;;;;;12.43;9.88;;;23.70;72.10;;;;;;4939530;28;93086;-95
2023/09/17 08:03:48;;;;;;;15.15;10.10;;;23.70;72.00;;;;;;4940240;28;93036;-95
2023/09/17 08:06:14;;;;;;;12.40;9.50;;;23.60;72.30;;;;;;4921684;28;92794;-95
2023/09/17 08:08:40;;;;;;;15.65;9.07;;;23.60;72.60;;;;;;4920924;28;92603;-93
2023/09/17 08:11:07;;;;;;;11.93;8.88;;;23.60;72.70;;;;;;4909183;28;94302;-94
2023/09/17 08:13:32;;;;;;;10.40;8.35;;;23.60;72.70;;;;;;4920057;28;94979;-96
2023/09/17 08:15:58;;;;;;;11.55;8.57;;;23.60;72.80;;;;;;4940964;28;91910;-95
2023/09/17 08:18:24;;;;;;;9.15;8.18;;;23.60;72.80;;;;;;4938627;28;92412;-93
2023/09/17 08:20:49;;;;;;;10.68;7.57;;;23.60;73.00;;;;;;4920008;28;96498;-94
2023/09/17 08:23:15;;;;;;;12.63;7.80;;;23.60;73.10;;;;;;4930858;28;93393;-94
2023/09/17 08:25:41;;;;;;;13.65;7.63;;;23.60;73.10;;;;;;4902496;28;93301;-93
2023/09/17 08:28:07;;;;;;;9.90;7.10;;;23.60;73.10;;;;;;4897741;28;94111;-93
2023/09/17 08:30:32;;;;;;;8.98;6.60;;;23.70;72.60;;;;;;4934504;28;95598;-94
2023/09/17 08:32:59;;;;;;;7.82;6.40;;;23.70;72.30;;;;;;4914503;28;94715;-88
2023/09/17 08:35:25;;;;;;;8.68;7.45;;;23.70;72.40;;;;;;4934536;28;92468;-95
2023/09/17 08:37:51;;;;;;;11.50;6.45;;;23.60;72.40;;;;;;4925155;28;91872;-94
2023/09/17 08:40:20;;;;;;;9.95;7.03;;;23.60;72.70;;;;;;4888016;28;95201;-95
2023/09/17 08:42:48;;;;;;;9.95;6.95;;;23.60;72.90;;;;;;4907406;28;92689;-96
2023/09/17 08:45:15;;;;;;;11.27;8.07;;;23.70;72.80;;;;;;4907349;28;93880;-94
2023/09/17 08:47:41;;;;;;;11.93;8.00;;;23.70;73.10;;;;;;4872920;28;92686;-95
2023/09/17 08:50:09;;;;;;;8.57;6.88;;;23.70;73.20;;;;;;4915028;28;93069;-95
2023/09/17 08:52:40;;;;;;;9.52;7.22;;;23.70;73.10;;;;;;4935409;28;93244;-95
2023/09/17 08:55:09;;;;;;;8.77;6.97;;;23.70;73.10;;;;;;4924742;28;92398;-95
2023/09/17 08:57:40;;;;;;;11.77;6.50;;;23.70;73.10;;;;;;4928624;28;92817;-91
2023/09/17 09:00:10;;;;;;;9.13;6.60;;;23.70;73.10;;;;;;4947210;28;93131;-96
2023/09/17 09:02:51;;;;;;;11.20;6.68;;;23.70;73.00;;;;;;4918928;28;94621;-94
2023/09/17 09:05:19;;;;;;;8.48;6.80;;;23.70;73.50;;;;;;4943516;28;92261;-92
2023/09/17 09:07:47;;;;;;;9.10;7.23;;;23.70;73.60;;;;;;4924264;28;92817;-95
2023/09/17 09:10:20;;;;;;;11.57;7.15;;;23.80;73.80;;;;;;4931531;28;93766;-96
2023/09/17 09:12:47;;;;;;;8.38;6.80;;;23.80;73.80;;;;;;4945869;28;96098;-95
2023/09/17 09:15:13;;;;;;;8.77;6.32;;;23.90;73.40;;;;;;4927053;28;92315;-96
2023/09/17 09:17:42;;;;;;;8.68;5.88;;;23.90;73.50;;;;;;4927619;28;92438;-96
2023/09/17 09:20:10;;;;;;;;;;;24.00;73.60;;;;;;4923257;28;95325;-96
2023/09/17 09:22:43;;;;;;;11.37;6.33;;;24.00;73.50;;;;;;4927800;28;94124;-96
2023/09/17 09:25:12;;;;;;;7.85;5.82;;;24.00;73.40;;;;;;4940236;28;91965;-91
2023/09/17 09:27:38;;;;;;;9.63;4.97;;;24.10;73.40;;;;;;4929783;28;91831;-95
2023/09/17 09:30:09;;;;;;;8.27;4.65;;;24.10;73.00;;;;;;4927044;28;95305;-94
2023/09/17 09:32:36;;;;;;;5.25;4.28;;;24.10;72.70;;;;;;4924691;28;95135;-93
2023/09/17 09:35:02;;;;;;;5.28;4.32;;;24.10;73.00;;;;;;4923026;28;93522;-95
2023/09/17 09:37:28;;;;;;;5.57;4.20;;;24.00;74.50;;;;;;4914976;28;92298;-96
2023/09/17 09:43:32;;;;;;;5.30;4.38;;;24.00;74.80;;;;;;4878564;28;96342;-96
2023/09/17 09:46:07;;;;;;;5.00;3.90;;;24.00;73.80;;;;;;4925923;28;92356;-96
2023/09/17 09:49:30;;;;;;;6.05;4.32;;;23.90;73.80;;;;;;4928534;28;93035;-95
2023/09/17 09:51:59;;;;;;;6.03;4.15;;;23.90;73.70;;;;;;4926433;28;98212;-92
2023/09/17 09:54:25;;;;;;;6.45;4.55;;;24.00;73.50;;;;;;4941291;28;96231;-92
2023/09/17 09:56:52;;;;;;;10.00;5.00;;;24.00;73.30;;;;;;4923400;28;92254;-93
2023/09/17 09:59:19;;;;;;;9.63;4.32;;;23.90;73.30;;;;;;4917420;28;92538;-93
2023/09/17 10:01:46;;;;;;;5.20;3.88;;;23.90;73.50;;;;;;4916546;28;96729;-93
2023/09/17 10:04:12;;;;;;;5.57;4.38;;;24.00;73.40;;;;;;4918626;28;96289;-93
2023/09/17 10:06:41;;;;;;;5.45;4.03;;;23.90;73.20;;;;;;4919538;28;93357;-93
2023/09/17 10:09:10;;;;;;;5.25;4.55;;;23.90;73.30;;;;;;4927196;28;92794;-92
2023/09/17 10:11:38;;;;;;;7.20;4.10;;;23.90;73.10;;;;;;4917898;28;95621;-92
2023/09/17 10:14:05;;;;;;;8.13;4.40;;;23.90;73.20;;;;;;4917979;28;95348;-92
2023/09/17 10:16:33;;;;;;;5.97;4.18;;;24.00;73.20;;;;;;4934378;28;93038;-91
2023/09/17 10:18:59;;;;;;;8.23;4.25;;;24.00;73.40;;;;;;4918571;28;92152;-91
2023/09/17 10:21:27;;;;;;;7.07;4.25;;;24.00;73.00;;;;;;4932115;28;93045;-89
2023/09/17 10:23:57;;;;;;;7.78;4.30;;;24.00;73.20;;;;;;4936830;28;93050;-90
2023/09/17 10:26:24;;;;;;;5.45;4.20;;;24.00;73.10;;;;;;4915791;28;92986;-94
2023/09/17 10:28:54;;;;;;;5.90;3.88;;;24.10;73.40;;;;;;4916593;28;92835;-94
2023/09/17 10:31:22;;;;;;;9.32;4.28;;;24.20;73.20;;;;;;4917123;28;94091;-91
2023/09/17 10:33:50;;;;;;;5.78;3.90;;;24.20;73.20;;;;;;4929854;28;92828;-92
2023/09/17 10:36:16;;;;;;;7.15;5.03;;;24.20;72.60;;;;;;4932981;28;92309;-92
2023/09/17 10:38:43;;;;;;;5.78;4.20;;;24.10;72.90;;;;;;4919058;28;92609;-92
2023/09/17 10:41:10;;;;;;;9.07;4.50;;;24.10;72.80;;;;;;4916572;28;95645;-92
2023/09/17 10:43:37;;;;;;;9.90;4.65;;;24.10;72.90;;;;;;4934379;28;93290;-92
2023/09/17 10:46:06;;;;;;;7.25;4.75;;;24.00;72.90;;;;;;4934910;28;92796;-92
2023/09/17 10:48:33;;;;;;;6.47;5.07;;;24.10;72.90;;;;;;4918083;28;92846;-92
2023/09/17 10:51:03;;;;;;;7.72;4.72;;;24.00;72.80;;;;;;4916921;28;95277;-92
2023/09/17 10:53:29;;;;;;;10.93;4.95;;;24.10;73.00;;;;;;4918066;28;95048;-91
2023/09/17 10:56:08;;;;;;;6.80;4.72;;;24.00;72.90;;;;;;4916998;28;92811;-92
2023/09/17 10:58:38;;;;;;;6.90;4.57;;;24.10;72.80;;;;;;4911569;28;93014;-92
2023/09/17 11:01:05;;;;;;;;;;;24.10;72.80;;;;;;4915483;28;95511;-92
2023/09/17 11:03:33;;;;;;;12.55;4.90;;;24.10;72.50;;;;;;4916172;28;94824;-92
2023/09/17 11:06:04;;;;;;;7.90;4.47;;;24.10;72.50;;;;;;4918308;28;93082;-92
2023/09/17 11:08:30;;;;;;;6.45;4.72;;;24.10;72.60;;;;;;4936548;28;91831;-91
2023/09/17 11:10:56;;;;;;;8.23;4.65;;;24.10;72.50;;;;;;4916833;28;94052;-93
2023/09/17 11:13:23;;;;;;;7.07;5.28;;;24.10;72.50;;;;;;4913723;28;94998;-92
2023/09/17 11:15:54;;;;;;;8.13;5.60;;;24.10;72.50;;;;;;4898390;28;93967;-92
2023/09/17 11:18:20;;;;;;;7.00;5.63;;;24.10;72.30;;;;;;4916822;28;92607;-92
2023/09/17 11:21:09;;;;;;;7.60;4.63;;;24.10;72.30;;;;;;4916955;28;94363;-92
2023/09/17 11:23:46;;;;;;;6.93;4.88;;;24.20;72.20;;;;;;4925386;28;94926;-91
2023/09/17 11:26:20;;;;;;;8.95;5.28;;;24.20;71.90;;;;;;4926224;28;92627;-92
2023/09/17 11:28:55;;;;;;;8.35;5.30;;;24.20;72.00;;;;;;4917810;28;92471;-91
2023/09/17 11:31:22;;;;;;;6.97;4.53;;;24.20;72.20;;;;;;4917489;28;96047;-91
2023/09/17 11:33:48;;;;;;;7.60;5.20;;;24.20;71.90;;;;;;4917500;28;94635;-91
2023/09/17 11:36:14;;;;;;;6.63;4.35;;;24.20;71.90;;;;;;4916915;28;93628;-91
2023/09/17 11:38:46;;;;;;;5.70;4.50;;;24.10;71.80;;;;;;4919307;28;92098;-92
2023/09/17 11:41:15;;;;;;;6.63;4.85;;;24.20;71.80;;;;;;4908393;28;95432;-91
2023/09/17 11:43:48;;;;;;;5.53;4.78;;;24.20;71.60;;;;;;4913884;28;96078;-92
2023/09/17 11:46:14;;;;;;;8.98;5.10;;;24.20;71.80;;;;;;4936730;28;93203;-92
2023/09/17 11:48:41;;;;;;;6.18;4.97;;;24.10;71.60;;;;;;4915822;28;92629;-92
2023/09/17 11:51:26;;;;;;;5.68;5.07;;;24.20;71.60;;;;;;4919574;28;94974;-92
2023/09/17 11:53:55;;;;;;;5.78;4.60;;;24.20;71.70;;;;;;4926644;28;95978;-91
2023/09/17 11:56:21;;;;;;;;;;;24.20;71.80;;;;;;4918461;28;93962;-92
2023/09/17 11:58:59;;;;;;;6.32;4.57;;;24.10;71.70;;;;;;4907228;28;91647;-92
2023/09/17 12:01:30;;;;;;;7.17;4.80;;;24.20;71.70;;;;;;4928247;28;94984;-91
2023/09/17 12:04:00;;;;;;;6.72;5.05;;;24.10;71.50;;;;;;4898815;28;94625;-92
2023/09/17 12:06:27;;;;;;;5.00;4.50;;;24.10;71.70;;;;;;4932269;28;93014;-92
2023/09/17 12:08:56;;;;;;;6.97;5.03;;;24.20;71.60;;;;;;4914343;28;92415;-92
2023/09/17 12:11:22;;;;;;;5.80;5.20;;;24.20;71.70;;;;;;4925154;28;95191;-92
2023/09/17 12:13:53;;;;;;;5.65;4.53;;;24.20;71.50;;;;;;4916888;28;95559;-92
2023/09/17 12:16:23;;;;;;;5.43;4.43;;;24.20;71.40;;;;;;4918421;28;92117;-91
2023/09/17 12:18:51;;;;;;;6.75;4.25;;;24.20;71.60;;;;;;4915143;28;92388;-92
2023/09/17 12:21:18;;;;;;;5.90;4.80;;;24.20;71.50;;;;;;4914412;28;95707;-92
2023/09/17 12:24:05;;;;;;;4.85;4.28;;;24.20;71.20;;;;;;4915183;28;94085;-92
2023/09/17 12:26:56;;;;;;;4.65;4.15;;;24.20;71.20;;;;;;4916263;28;92125;-92
2023/09/17 12:29:22;;;;;;;6.47;4.40;;;24.20;71.20;;;;;;4918533;28;93146;-92
2023/09/17 12:31:49;;;;;;;4.60;4.20;;;24.20;71.30;;;;;;4916354;28;96463;-92
2023/09/17 12:34:15;;;;;;;5.15;4.30;;;24.20;71.20;;;;;;4934519;28;94567;-91
2023/09/17 12:36:42;;;;;;;6.95;5.03;;;24.20;71.20;;;;;;4915299;28;92118;-92
2023/09/17 12:39:08;;;;;;;5.47;4.40;;;24.20;71.20;;;;;;4913910;28;92363;-92
2023/09/17 12:41:33;;;;;;;4.82;4.30;;;24.20;71.10;;;;;;4912643;28;94934;-91
2023/09/17 12:43:59;;;;;;;5.68;4.57;;;24.20;70.90;;;;;;4916085;28;95566;-92
2023/09/17 12:46:25;;;;;;;5.15;4.65;;;24.20;71.00;;;;;;4917457;28;91979;-92
2023/09/17 12:48:51;;;;;;;5.32;4.60;;;24.20;71.20;;;;;;4927126;28;92407;-92
2023/09/17 12:51:18;;;;;;;4.90;4.40;;;24.20;70.90;;;;;;4917118;28;94306;-92
2023/09/17 12:53:44;;;;;;;6.90;4.68;;;24.20;70.90;;;;;;4915647;28;93685;-91
2023/09/17 12:56:11;;;;;;;4.50;4.07;;;24.20;71.10;;;;;;4913043;28;93521;-92